createdAt,value
2023-03-22T00:01:13.820Z,7.61
2023-03-22T00:03:58.474Z,7.58
2023-03-22T00:16:51.921Z,7.55
2023-03-22T00:19:24.279Z,7.51
2023-03-22T00:24:42.708Z,7.43
2023-03-22T00:27:26.476Z,7.40
2023-03-22T00:29:56.506Z,7.36
2023-03-22T07:44:11.162Z,21.37
2023-03-22T08:10:33.293Z,21.39
2023-03-22T08:13:32.399Z,21.70
2023-03-22T08:16:28.240Z,21.79
2023-03-22T08:19:08.294Z,21.91
2023-03-22T08:21:46.463Z,22.18
2023-03-22T08:24:39.358Z,22.52
2023-03-22T08:27:28.389Z,22.84
2023-03-22T08:30:09.641Z,22.90
2023-03-22T08:32:41.654Z,22.86
2023-03-22T08:35:21.729Z,22.86
2023-03-22T08:38:27.711Z,23.08
2023-03-22T08:41:01.440Z,23.39
2023-03-22T08:43:33.088Z,23.64
2023-03-22T08:46:06.038Z,23.84
2023-03-22T08:48:38.174Z,23.97
2023-03-22T08:51:23.850Z,24.16
2023-03-22T08:54:19.467Z,24.34
2023-03-22T08:56:55.078Z,24.43
2023-03-22T08:59:54.625Z,24.47
2023-03-22T09:02:29.094Z,24.51
2023-03-22T09:05:01.618Z,24.63
2023-03-22T09:07:36.600Z,24.67
2023-03-22T09:10:17.725Z,24.76
2023-03-22T09:12:57.037Z,24.90
2023-03-22T09:15:35.402Z,24.99
2023-03-22T09:18:28.210Z,24.91
2023-03-22T09:21:05.042Z,24.88
2023-03-22T09:23:51.600Z,24.87
2023-03-22T09:26:26.029Z,24.55
2023-03-22T09:29:16.504Z,24.30
2023-03-22T09:31:50.690Z,24.14
2023-03-22T09:34:51.169Z,23.95
2023-03-22T09:37:26.243Z,23.92
2023-03-22T09:40:00.136Z,23.97
